Map

Track Data

SID SEASON NUMBER BASIN SUBBASIN NAME ISO_TIME NATURE LAT LON WMO_WIND WMO_PRES WMO_AGENCY TRACK_TYPE DIST2LAND LANDFALL IFLAG USA_AGENCY USA_ATCF_ID USA_LAT USA_LON USA_RECORD USA_STATUS USA_WIND USA_PRES USA_SSHS USA_R34_NE USA_R34_SE USA_R34_SW USA_R34_NW USA_R50_NE USA_R50_SE USA_R50_SW USA_R50_NW USA_R64_NE USA_R64_SE USA_R64_SW USA_R64_NW USA_POCI USA_ROCI USA_RMW USA_EYE TOKYO_LAT TOKYO_LON TOKYO_GRADE TOKYO_WIND TOKYO_PRES TOKYO_R50_DIR TOKYO_R50_LONG TOKYO_R50_SHORT TOKYO_R30_DIR TOKYO_R30_LONG TOKYO_R30_SHORT TOKYO_LAND CMA_LAT CMA_LON CMA_CAT CMA_WIND CMA_PRES HKO_LAT HKO_LON HKO_CAT HKO_WIND HKO_PRES NEWDELHI_LAT NEWDELHI_LON NEWDELHI_GRADE NEWDELHI_WIND NEWDELHI_PRES NEWDELHI_CI NEWDELHI_DP NEWDELHI_POCI REUNION_LAT REUNION_LON REUNION_TYPE REUNION_WIND REUNION_PRES REUNION_TNUM REUNION_CI REUNION_RMW REUNION_R34_NE REUNION_R34_SE REUNION_R34_SW REUNION_R34_NW REUNION_R50_NE REUNION_R50_SE REUNION_R50_SW REUNION_R50_NW REUNION_R64_NE REUNION_R64_SE REUNION_R64_SW REUNION_R64_NW BOM_LAT BOM_LON BOM_TYPE BOM_WIND BOM_PRES BOM_TNUM BOM_CI BOM_RMW BOM_R34_NE BOM_R34_SE BOM_R34_SW BOM_R34_NW BOM_R50_NE BOM_R50_SE BOM_R50_SW BOM_R50_NW BOM_R64_NE BOM_R64_SE BOM_R64_SW BOM_R64_NW BOM_ROCI BOM_POCI BOM_EYE BOM_POS_METHOD BOM_PRES_METHOD NADI_LAT NADI_LON NADI_CAT NADI_WIND NADI_PRES WELLINGTON_LAT WELLINGTON_LON WELLINGTON_WIND WELLINGTON_PRES DS824_LAT DS824_LON DS824_STAGE DS824_WIND DS824_PRES TD9636_LAT TD9636_LON TD9636_STAGE TD9636_WIND TD9636_PRES TD9635_LAT TD9635_LON TD9635_WIND TD9635_PRES TD9635_ROCI NEUMANN_LAT NEUMANN_LON NEUMANN_CLASS NEUMANN_WIND NEUMANN_PRES MLC_LAT MLC_LON MLC_CLASS MLC_WIND MLC_PRES USA_GUST BOM_GUST BOM_GUST_PER REUNION_GUST REUNION_GUST_PER USA_SEAHGT USA_SEARAD_NE USA_SEARAD_SE USA_SEARAD_SW USA_SEARAD_NW STORM_SPEED STORM_DIR
1879297N20275 1879 28 NA CS NOT_NAMED 1879-10-24 00:00:00 TS 20.2000 -84.6000 40 hurdat_atl main 179 156 O_____________ hurdat_atl AL071879 20.2000 -84.6000 TS 40 0 6 309
1879297N20275 1879 28 NA CS NOT_NAMED 1879-10-24 03:00:00 TS 20.3851 -84.8475 main 156 137 P_____________ AL071879 20.3851 -84.8475 TS 40 0 6 311
1879297N20275 1879 28 NA CS NOT_NAMED 1879-10-24 06:00:00 TS 20.6000 -85.1000 40 hurdat_atl main 137 123 O_____________ hurdat_atl AL071879 20.6000 -85.1000 TS 40 0 7 315
1879297N20275 1879 28 NA CS NOT_NAMED 1879-10-24 09:00:00 TS 20.8575 -85.3574 main 118 103 P_____________ AL071879 20.8575 -85.3574 TS 40 0 7 317
1879297N20275 1879 28 NA CS NOT_NAMED 1879-10-24 12:00:00 TS 21.1000 -85.6000 40 hurdat_atl main 108 93 O_____________ hurdat_atl AL071879 21.1000 -85.6000 TS 40 0 6 314
1879297N20275 1879 28 NA CS NOT_NAMED 1879-10-24 15:00:00 TS 21.2650 -85.8151 main 95 79 P_____________ AL071879 21.2650 -85.8151 TS 40 0 5 309
1879297N20275 1879 28 NA CS NOT_NAMED 1879-10-24 18:00:00 TS 21.4000 -86.0000 40 hurdat_atl main 79 70 O_____________ hurdat_atl AL071879 21.4000 -86.0000 TS 40 0 4 311
1879297N20275 1879 28 NA CS NOT_NAMED 1879-10-24 21:00:00 TS 21.5425 -86.1576 main 66 61 P_____________ AL071879 21.5425 -86.1576 TS 40 0 4 317
1879297N20275 1879 28 NA CS NOT_NAMED 1879-10-25 00:00:00 TS 21.7000 -86.3000 40 hurdat_atl main 68 68 O_____________ hurdat_atl AL071879 21.7000 -86.3000 TS 40 0 5 324
1879297N20275 1879 28 NA GM NOT_NAMED 1879-10-25 03:00:00 TS 21.9150 -86.4500 main 76 68 P_____________ AL071879 21.9150 -86.4500 TS 40 0 5 325
1879297N20275 1879 28 NA GM NOT_NAMED 1879-10-25 06:00:00 TS 22.1000 -86.6000 40 hurdat_atl main 78 73 O_____________ hurdat_atl AL071879 22.1000 -86.6000 TS 40 0 4 310
1879297N20275 1879 28 NA GM NOT_NAMED 1879-10-25 09:00:00 TS 22.1425 -86.7427 main 73 70 P_____________ AL071879 22.1425 -86.7427 TS 45 0 3 290
1879297N20275 1879 28 NA GM NOT_NAMED 1879-10-25 12:00:00 TS 22.2000 -86.9000 50 hurdat_atl main 78 78 O_____________ hurdat_atl AL071879 22.2000 -86.9000 TS 50 0 4 311
1879297N20275 1879 28 NA GM NOT_NAMED 1879-10-25 15:00:00 TS 22.4275 -87.0999 main 100 100 P_____________ AL071879 22.4275 -87.0999 TS 50 0 6 324
1879297N20275 1879 28 NA GM NOT_NAMED 1879-10-25 18:00:00 TS 22.7000 -87.3000 50 hurdat_atl main 135 135 O_____________ hurdat_atl AL071879 22.7000 -87.3000 TS 50 0 6 325
1879297N20275 1879 28 NA GM NOT_NAMED 1879-10-25 21:00:00 TS 22.9075 -87.4576 main 157 157 P_____________ AL071879 22.9075 -87.4576 TS 50 0 5 325
1879297N20275 1879 28 NA GM NOT_NAMED 1879-10-26 00:00:00 TS 23.1000 -87.6000 50 hurdat_atl main 179 179 O_____________ hurdat_atl AL071879 23.1000 -87.6000 TS 50 0 5 324
1879297N20275 1879 28 NA GM NOT_NAMED 1879-10-26 03:00:00 TS 23.2925 -87.7650 main 201 201 P_____________ AL071879 23.2925 -87.7650 TS 50 0 5 325
1879297N20275 1879 28 NA GM NOT_NAMED 1879-10-26 06:00:00 TS 23.5000 -87.9000 50 hurdat_atl main 223 223 O_____________ hurdat_atl AL071879 23.5000 -87.9000 TS 50 0 5 337
1879297N20275 1879 28 NA GM NOT_NAMED 1879-10-26 09:00:00 TS 23.7425 -87.9725 main 245 245 P_____________ AL071879 23.7425 -87.9725 TS 55 0 5 350
1879297N20275 1879 28 NA GM NOT_NAMED 1879-10-26 12:00:00 TS 24.0000 -88.0000 60 hurdat_atl main 279 279 O_____________ hurdat_atl AL071879 24.0000 -88.0000 TS 60 0 5 353
1879297N20275 1879 28 NA GM NOT_NAMED 1879-10-26 15:00:00 TS 24.2425 -88.0373 main 301 301 P_____________ AL071879 24.2425 -88.0373 TS 60 0 5 2
1879297N20275 1879 28 NA GM NOT_NAMED 1879-10-26 18:00:00 TS 24.5000 -88.0000 60 hurdat_atl main 335 335 O_____________ hurdat_atl AL071879 24.5000 -88.0000 TS 60 0 6 19
1879297N20275 1879 28 NA GM NOT_NAMED 1879-10-26 21:00:00 TS 24.7700 -87.8374 main 368 368 P_____________ AL071879 24.7700 -87.8374 TS 60 0 7 31
1879297N20275 1879 28 NA GM NOT_NAMED 1879-10-27 00:00:00 TS 25.1000 -87.6000 60 hurdat_atl main 402 402 O_____________ hurdat_atl AL071879 25.1000 -87.6000 TS 60 0 9 28
1879297N20275 1879 28 NA GM NOT_NAMED 1879-10-27 03:00:00 TS 25.5197 -87.3945 main 425 388 P_____________ AL071879 25.5197 -87.3945 TS 60 0 10 27
1879297N20275 1879 28 NA GM NOT_NAMED 1879-10-27 06:00:00 TS 26.0000 -87.1000 60 hurdat_atl main 388 368 O_____________ hurdat_atl AL071879 26.0000 -87.1000 TS 60 0 11 33
1879297N20275 1879 28 NA GM NOT_NAMED 1879-10-27 09:00:00 TS 26.4766 -86.7112 main 365 309 P_____________ AL071879 26.4766 -86.7112 TS 60 0 13 42
1879297N20275 1879 28 NA GM NOT_NAMED 1879-10-27 12:00:00 TS 27.0000 -86.1000 60 hurdat_atl main 309 240 O_____________ hurdat_atl AL071879 27.0000 -86.1000 TS 60 0 17 51
1879297N20275 1879 28 NA GM NOT_NAMED 1879-10-27 15:00:00 TS 27.5448 -85.2484 main 230 129 P_____________ AL071879 27.5448 -85.2484 TS 60 0 21 56
1879297N20275 1879 28 NA GM NOT_NAMED 1879-10-27 18:00:00 TS 28.2000 -84.1000 60 hurdat_atl main 122 0 O_____________ hurdat_atl AL071879 28.2000 -84.1000 TS 60 0 27 57
1879297N20275 1879 28 NA GM NOT_NAMED 1879-10-27 21:00:00 TS 29.0000 -82.7000 60 hurdat_atl main 0 0 O_____________ hurdat_atl AL071879 29.0000 -82.7000 L TS 60 0 26 57
1879297N20275 1879 28 NA NA NOT_NAMED 1879-10-28 00:00:00 TS 29.6000 -81.6000 50 hurdat_atl main 0 0 O_____________ hurdat_atl AL071879 29.6000 -81.6000 TS 50 0 26 56
1879297N20275 1879 28 NA NA NOT_NAMED 1879-10-28 03:00:00 TS 30.4585 -80.1815 main 116 116 P_____________ AL071879 30.4585 -80.1815 TS 50 0 32 54
1879297N20275 1879 28 NA NA NOT_NAMED 1879-10-28 06:00:00 TS 31.5000 -78.6000 50 hurdat_atl main 180 174 O_____________ hurdat_atl AL071879 31.5000 -78.6000 TS 50 0 34 52
1879297N20275 1879 28 NA NA NOT_NAMED 1879-10-28 09:00:00 TS 32.5017 -77.0720 main 177 142 P_____________ AL071879 32.5017 -77.0720 TS 55 0 34 49
1879297N20275 1879 28 NA NA NOT_NAMED 1879-10-28 12:00:00 TS 33.7000 -75.6000 60 hurdat_atl main 138 126 O_____________ hurdat_atl AL071879 33.7000 -75.6000 TS 60 0 36 40
1879297N20275 1879 28 NA NA NOT_NAMED 1879-10-28 15:00:00 TS 35.2275 -74.3022 main 127 125 P_____________ AL071879 35.2275 -74.3022 TS 60 0 39 35
1879297N20275 1879 28 NA NA NOT_NAMED 1879-10-28 18:00:00 TS 36.9000 -72.9000 60 hurdat_atl main 248 248 O_____________ hurdat_atl AL071879 36.9000 -72.9000 TS 60 0 42 38
1879297N20275 1879 28 NA NA NOT_NAMED 1879-10-28 21:00:00 TS 38.5037 -71.0686 main 286 211 P_____________ AL071879 38.5037 -71.0686 TS 65 1 43 44
1879297N20275 1879 28 NA NA NOT_NAMED 1879-10-29 00:00:00 TS 40.0000 -69.1000 70 hurdat_atl main 203 183 O_____________ hurdat_atl AL071879 40.0000 -69.1000 HU 70 1 40 45
1879297N20275 1879 28 NA NA NOT_NAMED 1879-10-29 03:00:00 TS 41.3422 -67.3070 main 228 122 P_____________ AL071879 41.3422 -67.3070 HU 70 1 37 47
1879297N20275 1879 28 NA NA NOT_NAMED 1879-10-29 06:00:00 TS 42.5000 -65.5000 70 hurdat_atl main 111 77 O_____________ hurdat_atl AL071879 42.5000 -65.5000 HU 70 1 34 53
1879297N20275 1879 28 NA NA NOT_NAMED 1879-10-29 09:00:00 TS 43.4165 -63.5883 main 106 87 P_____________ AL071879 43.4165 -63.5883 HU 65 1 34 58
1879297N20275 1879 28 NA NA NOT_NAMED 1879-10-29 12:00:00 TS 44.3000 -61.5000 60 hurdat_atl main 83 67 O_____________ hurdat_atl AL071879 44.3000 -61.5000 TS 60 0 37 59
1879297N20275 1879 28 NA NA NOT_NAMED 1879-10-29 15:00:00 TS 45.3564 -59.1192 main 89 80 P_____________ AL071879 45.3564 -59.1192 TS 60 0 41 58
1879297N20275 1879 28 NA NA NOT_NAMED 1879-10-29 18:00:00 TS 46.5000 -56.5000 60 hurdat_atl main 67 O_____________ hurdat_atl AL071879 46.5000 -56.5000 TS 60 0 43 58

About IBTrACS Database

This database is a web-friendly format of International Best Track Archive for Climate Stewardship (IBTrACS), a global best track data archive curated by NOAA dating back to 1842.

Updated: 2021-11-26